sensor_id;sensor_type;location;lat;lon;timestamp;temperature;humidity
19025;DHT22;9645;51.448;6.260;2023-07-09T00:04:18;23.70;99.90
19025;DHT22;9645;51.448;6.260;2023-07-09T00:06:45;23.60;99.90
19025;DHT22;9645;51.448;6.260;2023-07-09T00:09:13;23.60;99.90
19025;DHT22;9645;51.448;6.260;2023-07-09T00:11:41;23.60;99.90
19025;DHT22;9645;51.448;6.260;2023-07-09T00:14:10;23.10;99.90
19025;DHT22;9645;51.448;6.260;2023-07-09T00:16:38;23.40;99.90
19025;DHT22;9645;51.448;6.260;2023-07-09T00:19:09;23.20;99.90
19025;DHT22;9645;51.448;6.260;2023-07-09T00:21:39;23.30;99.90
19025;DHT22;9645;51.448;6.260;2023-07-09T00:24:07;23.30;99.90
19025;DHT22;9645;51.448;6.260;2023-07-09T00:26:36;23.30;99.90
19025;DHT22;9645;51.448;6.260;2023-07-09T00:29:09;23.20;99.90
19025;DHT22;9645;51.448;6.260;2023-07-09T00:31:36;23.10;99.90
19025;DHT22;9645;51.448;6.260;2023-07-09T00:34:06;23.30;99.90
19025;DHT22;9645;51.448;6.260;2023-07-09T00:36:33;23.10;99.90
19025;DHT22;9645;51.448;6.260;2023-07-09T00:39:01;23.00;99.90
19025;DHT22;9645;51.448;6.260;2023-07-09T00:41:32;23.00;99.90
19025;DHT22;9645;51.448;6.260;2023-07-09T00:44:24;23.00;99.90
19025;DHT22;9645;51.448;6.260;2023-07-09T00:47:15;22.90;99.90
19025;DHT22;9645;51.448;6.260;2023-07-09T00:52:22;22.80;99.90
19025;DHT22;9645;51.448;6.260;2023-07-09T00:54:51;22.70;99.90
19025;DHT22;9645;51.448;6.260;2023-07-09T00:57:22;22.60;99.90
19025;DHT22;9645;51.448;6.260;2023-07-09T00:59:55;23.10;99.90
19025;DHT22;9645;51.448;6.260;2023-07-09T01:02:23;22.70;99.90
19025;DHT22;9645;51.448;6.260;2023-07-09T01:04:51;22.70;99.90
19025;DHT22;9645;51.448;6.260;2023-07-09T01:07:21;22.80;99.90
19025;DHT22;9645;51.448;6.260;2023-07-09T01:09:48;22.70;99.90
19025;DHT22;9645;51.448;6.260;2023-07-09T01:12:19;22.60;99.90
19025;DHT22;9645;51.448;6.260;2023-07-09T01:14:48;22.60;99.90
19025;DHT22;9645;51.448;6.260;2023-07-09T01:17:18;22.50;99.90
19025;DHT22;9645;51.448;6.260;2023-07-09T01:19:50;22.70;99.90
19025;DHT22;9645;51.448;6.260;2023-07-09T01:22:20;22.40;99.90
19025;DHT22;9645;51.448;6.260;2023-07-09T01:24:54;22.10;99.90
19025;DHT22;9645;51.448;6.260;2023-07-09T01:27:24;22.40;99.90
19025;DHT22;9645;51.448;6.260;2023-07-09T01:29:52;22.40;99.90
19025;DHT22;9645;51.448;6.260;2023-07-09T01:32:20;22.30;99.90
19025;DHT22;9645;51.448;6.260;2023-07-09T01:34:50;22.20;99.90
19025;DHT22;9645;51.448;6.260;2023-07-09T01:37:24;22.30;99.90
19025;DHT22;9645;51.448;6.260;2023-07-09T01:39:52;22.40;99.90
19025;DHT22;9645;51.448;6.260;2023-07-09T01:42:21;21.90;99.90
19025;DHT22;9645;51.448;6.260;2023-07-09T01:47:17;21.70;99.90
19025;DHT22;9645;51.448;6.260;2023-07-09T01:52:14;22.00;99.90
19025;DHT22;9645;51.448;6.260;2023-07-09T01:54:43;21.90;99.90
19025;DHT22;9645;51.448;6.260;2023-07-09T01:57:16;21.90;99.90
19025;DHT22;9645;51.448;6.260;2023-07-09T02:04:46;21.20;99.90
19025;DHT22;9645;51.448;6.260;2023-07-09T02:07:13;21.80;99.90
19025;DHT22;9645;51.448;6.260;2023-07-09T02:09:40;21.70;99.90
19025;DHT22;9645;51.448;6.260;2023-07-09T02:12:10;21.70;99.90
19025;DHT22;9645;51.448;6.260;2023-07-09T02:14:37;21.50;99.90
19025;DHT22;9645;51.448;6.260;2023-07-09T02:17:05;21.70;99.90
19025;DHT22;9645;51.448;6.260;2023-07-09T02:26:54;21.40;99.90
19025;DHT22;9645;51.448;6.260;2023-07-09T02:29:22;21.60;99.90
19025;DHT22;9645;51.448;6.260;2023-07-09T02:31:50;21.60;99.90
19025;DHT22;9645;51.448;6.260;2023-07-09T02:39:13;21.20;99.90
19025;DHT22;9645;51.448;6.260;2023-07-09T02:41:40;21.60;99.90
19025;DHT22;9645;51.448;6.260;2023-07-09T02:46:36;21.70;99.90
19025;DHT22;9645;51.448;6.260;2023-07-09T02:49:04;21.60;99.90
19025;DHT22;9645;51.448;6.260;2023-07-09T02:51:32;21.30;99.90
19025;DHT22;9645;51.448;6.260;2023-07-09T02:54:01;21.70;99.90
19025;DHT22;9645;51.448;6.260;2023-07-09T02:56:29;21.40;99.90
19025;DHT22;9645;51.448;6.260;2023-07-09T03:01:24;21.30;99.90
19025;DHT22;9645;51.448;6.260;2023-07-09T03:03:54;21.20;99.90
19025;DHT22;9645;51.448;6.260;2023-07-09T03:06:23;21.10;99.90
19025;DHT22;9645;51.448;6.260;2023-07-09T03:08:50;21.40;99.90
19025;DHT22;9645;51.448;6.260;2023-07-09T03:11:19;21.90;99.90
19025;DHT22;9645;51.448;6.260;2023-07-09T03:13:46;21.10;99.90
19025;DHT22;9645;51.448;6.260;2023-07-09T03:16:15;21.10;99.90
19025;DHT22;9645;51.448;6.260;2023-07-09T03:18:44;21.10;99.90
19025;DHT22;9645;51.448;6.260;2023-07-09T03:21:13;21.10;99.90
19025;DHT22;9645;51.448;6.260;2023-07-09T03:23:41;21.10;99.90
19025;DHT22;9645;51.448;6.260;2023-07-09T03:28:35;21.00;99.90
19025;DHT22;9645;51.448;6.260;2023-07-09T03:33:29;20.50;99.90
19025;DHT22;9645;51.448;6.260;2023-07-09T03:38:25;21.30;99.90
19025;DHT22;9645;51.448;6.260;2023-07-09T03:45:46;21.60;99.90
19025;DHT22;9645;51.448;6.260;2023-07-09T03:48:14;21.00;99.90
19025;DHT22;9645;51.448;6.260;2023-07-09T03:50:43;21.00;99.90
19025;DHT22;9645;51.448;6.260;2023-07-09T03:53:11;21.80;99.90
19025;DHT22;9645;51.448;6.260;2023-07-09T03:55:39;21.00;99.90
19025;DHT22;9645;51.448;6.260;2023-07-09T03:58:07;21.30;99.90
19025;DHT22;9645;51.448;6.260;2023-07-09T04:00:34;21.20;99.90
19025;DHT22;9645;51.448;6.260;2023-07-09T04:03:01;21.10;99.90
19025;DHT22;9645;51.448;6.260;2023-07-09T04:12:51;20.80;99.90
19025;DHT22;9645;51.448;6.260;2023-07-09T04:17:45;21.40;99.90
19025;DHT22;9645;51.448;6.260;2023-07-09T04:20:12;21.10;99.90
19025;DHT22;9645;51.448;6.260;2023-07-09T04:22:40;21.30;99.90
19025;DHT22;9645;51.448;6.260;2023-07-09T04:25:09;21.30;99.90
19025;DHT22;9645;51.448;6.260;2023-07-09T04:27:36;21.70;99.90
19025;DHT22;9645;51.448;6.260;2023-07-09T04:30:07;21.50;99.90
19025;DHT22;9645;51.448;6.260;2023-07-09T04:32:35;21.50;99.90
19025;DHT22;9645;51.448;6.260;2023-07-09T04:35:03;21.80;99.90
19025;DHT22;9645;51.448;6.260;2023-07-09T04:42:25;21.70;99.90
19025;DHT22;9645;51.448;6.260;2023-07-09T04:47:21;21.80;99.90
19025;DHT22;9645;51.448;6.260;2023-07-09T04:49:48;22.00;99.90
19025;DHT22;9645;51.448;6.260;2023-07-09T04:57:10;22.00;99.90
19025;DHT22;9645;51.448;6.260;2023-07-09T05:02:05;22.10;99.90
19025;DHT22;9645;51.448;6.260;2023-07-09T05:04:34;22.10;99.90
19025;DHT22;9645;51.448;6.260;2023-07-09T05:16:50;22.10;99.90
19025;DHT22;9645;51.448;6.260;2023-07-09T05:21:45;22.50;99.90
19025;DHT22;9645;51.448;6.260;2023-07-09T05:26:40;22.60;99.90
19025;DHT22;9645;51.448;6.260;2023-07-09T05:29:07;22.90;99.90
19025;DHT22;9645;51.448;6.260;2023-07-09T05:34:02;23.10;99.90
19025;DHT22;9645;51.448;6.260;2023-07-09T05:38:57;23.20;99.90
19025;DHT22;9645;51.448;6.260;2023-07-09T05:41:24;23.50;99.90
19025;DHT22;9645;51.448;6.260;2023-07-09T05:43:52;23.40;99.90
19025;DHT22;9645;51.448;6.260;2023-07-09T05:46:21;23.30;99.90
19025;DHT22;9645;51.448;6.260;2023-07-09T05:51:15;23.90;99.90
19025;DHT22;9645;51.448;6.260;2023-07-09T05:53:42;23.70;99.90
19025;DHT22;9645;51.448;6.260;2023-07-09T05:56:10;23.90;99.90
19025;DHT22;9645;51.448;6.260;2023-07-09T06:10:57;25.10;99.90
19025;DHT22;9645;51.448;6.260;2023-07-09T06:13:27;25.00;99.90
19025;DHT22;9645;51.448;6.260;2023-07-09T06:15:54;25.40;99.90
19025;DHT22;9645;51.448;6.260;2023-07-09T06:18:23;25.60;99.90
19025;DHT22;9645;51.448;6.260;2023-07-09T06:20:51;25.80;99.90
19025;DHT22;9645;51.448;6.260;2023-07-09T06:23:19;24.80;99.90
19025;DHT22;9645;51.448;6.260;2023-07-09T06:25:47;25.80;99.90
19025;DHT22;9645;51.448;6.260;2023-07-09T06:28:15;25.20;99.90
19025;DHT22;9645;51.448;6.260;2023-07-09T06:30:43;26.20;99.90
19025;DHT22;9645;51.448;6.260;2023-07-09T06:33:11;26.20;99.90
19025;DHT22;9645;51.448;6.260;2023-07-09T06:38:06;26.70;99.90
19025;DHT22;9645;51.448;6.260;2023-07-09T06:40:34;26.70;99.90
19025;DHT22;9645;51.448;6.260;2023-07-09T06:45:28;26.80;99.90
19025;DHT22;9645;51.448;6.260;2023-07-09T06:47:57;27.10;99.90
19025;DHT22;9645;51.448;6.260;2023-07-09T06:50:24;27.50;99.90
19025;DHT22;9645;51.448;6.260;2023-07-09T06:52:51;27.70;99.90
19025;DHT22;9645;51.448;6.260;2023-07-09T06:55:18;27.60;99.90
19025;DHT22;9645;51.448;6.260;2023-07-09T07:00:13;27.90;99.90
19025;DHT22;9645;51.448;6.260;2023-07-09T07:02:40;28.10;99.90
19025;DHT22;9645;51.448;6.260;2023-07-09T07:05:08;27.60;99.90
19025;DHT22;9645;51.448;6.260;2023-07-09T07:12:42;28.60;99.90
19025;DHT22;9645;51.448;6.260;2023-07-09T07:15:10;28.70;99.90
19025;DHT22;9645;51.448;6.260;2023-07-09T07:20:05;28.20;99.90
19025;DHT22;9645;51.448;6.260;2023-07-09T07:22:34;29.00;99.90
19025;DHT22;9645;51.448;6.260;2023-07-09T07:25:01;29.80;99.90
19025;DHT22;9645;51.448;6.260;2023-07-09T07:37:19;30.00;99.90
19025;DHT22;9645;51.448;6.260;2023-07-09T07:39:47;29.40;99.90
19025;DHT22;9645;51.448;6.260;2023-07-09T07:44:42;30.70;99.90
19025;DHT22;9645;51.448;6.260;2023-07-09T07:47:09;31.10;99.90
19025;DHT22;9645;51.448;6.260;2023-07-09T07:52:06;31.30;99.90
19025;DHT22;9645;51.448;6.260;2023-07-09T07:54:33;30.90;99.90
19025;DHT22;9645;51.448;6.260;2023-07-09T07:57:02;31.60;99.90
19025;DHT22;9645;51.448;6.260;2023-07-09T08:01:58;31.70;99.90
19025;DHT22;9645;51.448;6.260;2023-07-09T08:04:25;32.00;99.90
19025;DHT22;9645;51.448;6.260;2023-07-09T08:09:19;32.30;99.90
19025;DHT22;9645;51.448;6.260;2023-07-09T08:14:16;32.70;99.90
19025;DHT22;9645;51.448;6.260;2023-07-09T08:16:43;32.70;99.90
19025;DHT22;9645;51.448;6.260;2023-07-09T08:24:05;32.90;99.90
19025;DHT22;9645;51.448;6.260;2023-07-09T08:31:28;33.20;99.90
19025;DHT22;9645;51.448;6.260;2023-07-09T08:36:23;33.70;99.90
19025;DHT22;9645;51.448;6.260;2023-07-09T08:38:50;33.70;99.90
19025;DHT22;9645;51.448;6.260;2023-07-09T08:41:33;34.00;99.90
19025;DHT22;9645;51.448;6.260;2023-07-09T08:44:40;34.20;99.90
19025;DHT22;9645;51.448;6.260;2023-07-09T08:47:14;34.60;99.90
19025;DHT22;9645;51.448;6.260;2023-07-09T08:49:46;34.80;99.90
19025;DHT22;9645;51.448;6.260;2023-07-09T08:52:26;35.10;99.90
19025;DHT22;9645;51.448;6.260;2023-07-09T08:54:56;35.30;99.90
19025;DHT22;9645;51.448;6.260;2023-07-09T08:57:26;35.00;99.90
19025;DHT22;9645;51.448;6.260;2023-07-09T08:59:59;35.40;99.90
19025;DHT22;9645;51.448;6.260;2023-07-09T09:02:35;35.70;99.90
19025;DHT22;9645;51.448;6.260;2023-07-09T09:05:03;35.60;99.90
19025;DHT22;9645;51.448;6.260;2023-07-09T09:07:39;35.80;99.90
19025;DHT22;9645;51.448;6.260;2023-07-09T09:10:12;36.20;99.90
19025;DHT22;9645;51.448;6.260;2023-07-09T09:12:46;35.80;99.90
19025;DHT22;9645;51.448;6.260;2023-07-09T09:15:20;36.10;99.90
19025;DHT22;9645;51.448;6.260;2023-07-09T09:17:52;36.60;99.90
19025;DHT22;9645;51.448;6.260;2023-07-09T09:20:21;36.80;99.90
19025;DHT22;9645;51.448;6.260;2023-07-09T09:22:52;36.70;99.90
19025;DHT22;9645;51.448;6.260;2023-07-09T09:25:24;37.10;99.90
19025;DHT22;9645;51.448;6.260;2023-07-09T09:30:22;36.70;99.90
19025;DHT22;9645;51.448;6.260;2023-07-09T09:32:54;37.30;99.90
19025;DHT22;9645;51.448;6.260;2023-07-09T09:35:27;37.70;99.90
19025;DHT22;9645;51.448;6.260;2023-07-09T09:37:57;37.30;1.00
19025;DHT22;9645;51.448;6.260;2023-07-09T09:40:26;37.50;99.90
19025;DHT22;9645;51.448;6.260;2023-07-09T09:42:56;37.20;1.00
19025;DHT22;9645;51.448;6.260;2023-07-09T09:45:27;38.40;99.90
19025;DHT22;9645;51.448;6.260;2023-07-09T09:47:59;38.10;99.90
19025;DHT22;9645;51.448;6.260;2023-07-09T09:50:31;38.20;99.90
19025;DHT22;9645;51.448;6.260;2023-07-09T09:52:59;37.70;1.00
19025;DHT22;9645;51.448;6.260;2023-07-09T09:55:29;38.70;1.00
19025;DHT22;9645;51.448;6.260;2023-07-09T09:57:56;39.10;1.00
19025;DHT22;9645;51.448;6.260;2023-07-09T10:00:26;38.50;1.00
19025;DHT22;9645;51.448;6.260;2023-07-09T10:02:59;38.80;1.00
19025;DHT22;9645;51.448;6.260;2023-07-09T10:05:32;39.00;1.00
19025;DHT22;9645;51.448;6.260;2023-07-09T10:08:04;38.90;1.00
19025;DHT22;9645;51.448;6.260;2023-07-09T10:10:33;39.20;1.00
19025;DHT22;9645;51.448;6.260;2023-07-09T10:13:05;39.10;1.00
19025;DHT22;9645;51.448;6.260;2023-07-09T10:15:43;39.20;1.00
19025;DHT22;9645;51.448;6.260;2023-07-09T10:18:31;39.40;1.00
19025;DHT22;9645;51.448;6.260;2023-07-09T10:21:05;39.40;1.00
19025;DHT22;9645;51.448;6.260;2023-07-09T10:23:39;39.40;1.00
19025;DHT22;9645;51.448;6.260;2023-07-09T10:26:12;39.50;1.00
19025;DHT22;9645;51.448;6.260;2023-07-09T10:28:55;39.70;1.00
19025;DHT22;9645;51.448;6.260;2023-07-09T10:31:31;39.80;1.00
19025;DHT22;9645;51.448;6.260;2023-07-09T10:34:13;39.70;1.00
19025;DHT22;9645;51.448;6.260;2023-07-09T10:36:59;39.70;1.00
19025;DHT22;9645;51.448;6.260;2023-07-09T10:39:32;39.90;1.00
19025;DHT22;9645;51.448;6.260;2023-07-09T10:42:01;39.80;1.00
19025;DHT22;9645;51.448;6.260;2023-07-09T10:44:32;39.80;1.00
19025;DHT22;9645;51.448;6.260;2023-07-09T10:47:02;40.00;1.00
19025;DHT22;9645;51.448;6.260;2023-07-09T10:49:36;40.30;1.00
19025;DHT22;9645;51.448;6.260;2023-07-09T10:52:07;40.10;1.00
19025;DHT22;9645;51.448;6.260;2023-07-09T10:54:41;39.90;1.00
19025;DHT22;9645;51.448;6.260;2023-07-09T10:57:12;39.80;1.00
19025;DHT22;9645;51.448;6.260;2023-07-09T10:59:42;39.70;1.00
19025;DHT22;9645;51.448;6.260;2023-07-09T11:02:18;39.90;1.00
19025;DHT22;9645;51.448;6.260;2023-07-09T11:04:52;39.90;1.00
19025;DHT22;9645;51.448;6.260;2023-07-09T11:07:27;39.70;1.00
19025;DHT22;9645;51.448;6.260;2023-07-09T11:09:55;39.40;1.00
19025;DHT22;9645;51.448;6.260;2023-07-09T11:12:29;39.90;1.00
19025;DHT22;9645;51.448;6.260;2023-07-09T11:15:01;40.00;1.00
19025;DHT22;9645;51.448;6.260;2023-07-09T11:17:30;40.50;1.00
19025;DHT22;9645;51.448;6.260;2023-07-09T11:20:06;40.40;1.00
19025;DHT22;9645;51.448;6.260;2023-07-09T11:22:38;40.20;1.00
19025;DHT22;9645;51.448;6.260;2023-07-09T11:25:09;40.60;1.00
19025;DHT22;9645;51.448;6.260;2023-07-09T11:27:48;40.80;1.00
19025;DHT22;9645;51.448;6.260;2023-07-09T11:30:25;40.60;1.00
19025;DHT22;9645;51.448;6.260;2023-07-09T11:32:56;40.50;1.00
19025;DHT22;9645;51.448;6.260;2023-07-09T11:35:25;40.40;1.00
19025;DHT22;9645;51.448;6.260;2023-07-09T11:37:53;40.50;1.00
19025;DHT22;9645;51.448;6.260;2023-07-09T11:40:22;40.10;1.00
19025;DHT22;9645;51.448;6.260;2023-07-09T11:42:52;40.30;1.00
19025;DHT22;9645;51.448;6.260;2023-07-09T11:45:22;40.40;1.00
19025;DHT22;9645;51.448;6.260;2023-07-09T11:47:55;40.10;1.00
19025;DHT22;9645;51.448;6.260;2023-07-09T11:50:28;40.20;1.00
19025;DHT22;9645;51.448;6.260;2023-07-09T11:52:58;40.20;1.00
19025;DHT22;9645;51.448;6.260;2023-07-09T11:55:28;40.10;1.00
19025;DHT22;9645;51.448;6.260;2023-07-09T11:57:56;39.60;1.00
19025;DHT22;9645;51.448;6.260;2023-07-09T12:00:24;39.30;1.00
19025;DHT22;9645;51.448;6.260;2023-07-09T12:05:27;38.60;1.00
19025;DHT22;9645;51.448;6.260;2023-07-09T12:07:55;38.20;1.00
19025;DHT22;9645;51.448;6.260;2023-07-09T12:10:25;38.20;1.00
19025;DHT22;9645;51.448;6.260;2023-07-09T12:12:56;37.50;1.00
19025;DHT22;9645;51.448;6.260;2023-07-09T12:15:25;37.60;1.00
19025;DHT22;9645;51.448;6.260;2023-07-09T12:17:57;37.70;1.00
19025;DHT22;9645;51.448;6.260;2023-07-09T12:20:29;37.30;1.00
19025;DHT22;9645;51.448;6.260;2023-07-09T12:25:26;37.70;1.00
19025;DHT22;9645;51.448;6.260;2023-07-09T12:27:53;37.80;1.00
19025;DHT22;9645;51.448;6.260;2023-07-09T12:32:49;37.70;1.00
19025;DHT22;9645;51.448;6.260;2023-07-09T12:35:18;37.20;1.00
19025;DHT22;9645;51.448;6.260;2023-07-09T12:37:48;38.30;1.00
19025;DHT22;9645;51.448;6.260;2023-07-09T12:40:21;38.40;1.00
19025;DHT22;9645;51.448;6.260;2023-07-09T12:42:49;37.90;1.00
19025;DHT22;9645;51.448;6.260;2023-07-09T12:45:18;38.20;1.00
19025;DHT22;9645;51.448;6.260;2023-07-09T12:47:46;38.20;1.00
19025;DHT22;9645;51.448;6.260;2023-07-09T12:50:27;38.30;1.00
19025;DHT22;9645;51.448;6.260;2023-07-09T12:53:00;38.20;1.00
19025;DHT22;9645;51.448;6.260;2023-07-09T12:55:30;38.40;1.00
19025;DHT22;9645;51.448;6.260;2023-07-09T12:58:10;38.50;1.00
19025;DHT22;9645;51.448;6.260;2023-07-09T13:00:37;38.30;1.00
19025;DHT22;9645;51.448;6.260;2023-07-09T13:03:13;38.60;1.00
19025;DHT22;9645;51.448;6.260;2023-07-09T13:05:51;38.30;1.00
19025;DHT22;9645;51.448;6.260;2023-07-09T13:08:20;37.70;1.00
19025;DHT22;9645;51.448;6.260;2023-07-09T13:13:19;37.20;1.00
19025;DHT22;9645;51.448;6.260;2023-07-09T13:15:49;36.50;1.00
19025;DHT22;9645;51.448;6.260;2023-07-09T13:20:45;36.50;1.00
19025;DHT22;9645;51.448;6.260;2023-07-09T13:23:15;36.00;1.00
19025;DHT22;9645;51.448;6.260;2023-07-09T13:25:45;35.50;1.00
19025;DHT22;9645;51.448;6.260;2023-07-09T13:28:16;35.60;1.00
19025;DHT22;9645;51.448;6.260;2023-07-09T13:30:43;35.60;1.00
19025;DHT22;9645;51.448;6.260;2023-07-09T13:33:10;34.70;1.00
19025;DHT22;9645;51.448;6.260;2023-07-09T13:35:38;34.60;1.00
19025;DHT22;9645;51.448;6.260;2023-07-09T13:38:12;34.80;1.00
19025;DHT22;9645;51.448;6.260;2023-07-09T13:40:39;34.30;1.00
19025;DHT22;9645;51.448;6.260;2023-07-09T13:43:12;34.50;1.00
19025;DHT22;9645;51.448;6.260;2023-07-09T13:45:39;33.80;1.00
19025;DHT22;9645;51.448;6.260;2023-07-09T13:48:12;33.70;1.00
19025;DHT22;9645;51.448;6.260;2023-07-09T13:53:13;33.20;1.00
19025;DHT22;9645;51.448;6.260;2023-07-09T13:58:10;32.00;1.00
19025;DHT22;9645;51.448;6.260;2023-07-09T14:03:12;32.60;1.00
19025;DHT22;9645;51.448;6.260;2023-07-09T14:08:08;32.50;1.00
19025;DHT22;9645;51.448;6.260;2023-07-09T14:10:35;32.00;1.00
19025;DHT22;9645;51.448;6.260;2023-07-09T14:15:31;31.70;1.00
19025;DHT22;9645;51.448;6.260;2023-07-09T14:17:58;31.30;99.90
19025;DHT22;9645;51.448;6.260;2023-07-09T14:20:25;28.40;99.90
19025;DHT22;9645;51.448;6.260;2023-07-09T14:25:21;25.70;99.90
19025;DHT22;9645;51.448;6.260;2023-07-09T14:27:49;25.30;99.90
19025;DHT22;9645;51.448;6.260;2023-07-09T14:30:18;24.50;99.90
19025;DHT22;9645;51.448;6.260;2023-07-09T14:32:48;24.20;99.90
19025;DHT22;9645;51.448;6.260;2023-07-09T14:35:18;24.00;99.90
19025;DHT22;9645;51.448;6.260;2023-07-09T14:37:48;23.90;99.90
19025;DHT22;9645;51.448;6.260;2023-07-09T14:40:16;23.70;99.90
19025;DHT22;9645;51.448;6.260;2023-07-09T14:42:45;23.60;99.90
19025;DHT22;9645;51.448;6.260;2023-07-09T14:45:18;23.60;99.90
19025;DHT22;9645;51.448;6.260;2023-07-09T14:47:47;23.60;99.90
19025;DHT22;9645;51.448;6.260;2023-07-09T14:50:14;23.50;99.90
19025;DHT22;9645;51.448;6.260;2023-07-09T14:52:43;23.60;99.90
19025;DHT22;9645;51.448;6.260;2023-07-09T14:55:14;23.30;99.90
19025;DHT22;9645;51.448;6.260;2023-07-09T14:57:42;23.70;99.90
19025;DHT22;9645;51.448;6.260;2023-07-09T15:00:13;23.70;99.90
19025;DHT22;9645;51.448;6.260;2023-07-09T15:02:42;23.80;99.90
19025;DHT22;9645;51.448;6.260;2023-07-09T15:05:17;23.90;99.90
19025;DHT22;9645;51.448;6.260;2023-07-09T15:10:13;23.90;99.90
19025;DHT22;9645;51.448;6.260;2023-07-09T15:12:40;24.10;99.90
19025;DHT22;9645;51.448;6.260;2023-07-09T15:15:15;23.80;99.90
19025;DHT22;9645;51.448;6.260;2023-07-09T15:20:15;23.50;99.90
19025;DHT22;9645;51.448;6.260;2023-07-09T15:22:43;24.10;99.90
19025;DHT22;9645;51.448;6.260;2023-07-09T15:25:13;24.20;99.90
19025;DHT22;9645;51.448;6.260;2023-07-09T15:30:13;24.10;99.90
19025;DHT22;9645;51.448;6.260;2023-07-09T15:35:08;24.40;99.90
19025;DHT22;9645;51.448;6.260;2023-07-09T15:37:36;24.50;99.90
19025;DHT22;9645;51.448;6.260;2023-07-09T15:40:05;24.90;99.90
19025;DHT22;9645;51.448;6.260;2023-07-09T15:42:40;24.80;99.90
19025;DHT22;9645;51.448;6.260;2023-07-09T15:45:08;25.00;99.90
19025;DHT22;9645;51.448;6.260;2023-07-09T15:47:36;25.10;99.90
19025;DHT22;9645;51.448;6.260;2023-07-09T15:50:08;25.30;99.90
19025;DHT22;9645;51.448;6.260;2023-07-09T15:52:36;25.30;99.90
19025;DHT22;9645;51.448;6.260;2023-07-09T15:55:04;25.50;99.90
19025;DHT22;9645;51.448;6.260;2023-07-09T16:04:53;26.40;99.90
19025;DHT22;9645;51.448;6.260;2023-07-09T16:09:50;26.60;99.90
19025;DHT22;9645;51.448;6.260;2023-07-09T16:12:17;26.50;99.90
19025;DHT22;9645;51.448;6.260;2023-07-09T16:17:11;25.90;99.90
19025;DHT22;9645;51.448;6.260;2023-07-09T16:19:38;26.20;99.90
19025;DHT22;9645;51.448;6.260;2023-07-09T16:22:06;26.20;99.90
19025;DHT22;9645;51.448;6.260;2023-07-09T16:24:34;25.30;99.90
19025;DHT22;9645;51.448;6.260;2023-07-09T16:27:05;25.20;99.90
19025;DHT22;9645;51.448;6.260;2023-07-09T16:29:34;25.90;99.90
19025;DHT22;9645;51.448;6.260;2023-07-09T16:32:01;26.10;99.90
19025;DHT22;9645;51.448;6.260;2023-07-09T16:34:29;26.00;99.90
19025;DHT22;9645;51.448;6.260;2023-07-09T16:36:57;25.90;99.90
19025;DHT22;9645;51.448;6.260;2023-07-09T16:39:27;25.80;99.90
19025;DHT22;9645;51.448;6.260;2023-07-09T16:41:56;25.50;99.90
19025;DHT22;9645;51.448;6.260;2023-07-09T16:44:25;25.70;99.90
19025;DHT22;9645;51.448;6.260;2023-07-09T16:46:53;25.40;99.90
19025;DHT22;9645;51.448;6.260;2023-07-09T16:49:27;25.40;99.90
19025;DHT22;9645;51.448;6.260;2023-07-09T16:51:56;25.20;99.90
19025;DHT22;9645;51.448;6.260;2023-07-09T16:54:24;25.10;99.90
19025;DHT22;9645;51.448;6.260;2023-07-09T16:56:52;25.00;99.90
19025;DHT22;9645;51.448;6.260;2023-07-09T17:01:47;24.80;99.90
19025;DHT22;9645;51.448;6.260;2023-07-09T17:04:24;24.90;99.90
19025;DHT22;9645;51.448;6.260;2023-07-09T17:06:53;24.60;99.90
19025;DHT22;9645;51.448;6.260;2023-07-09T17:09:21;24.80;99.90
19025;DHT22;9645;51.448;6.260;2023-07-09T17:11:55;25.10;99.90
19025;DHT22;9645;51.448;6.260;2023-07-09T17:14:23;25.50;99.90
19025;DHT22;9645;51.448;6.260;2023-07-09T17:16:51;25.50;99.90
19025;DHT22;9645;51.448;6.260;2023-07-09T17:21:46;25.90;99.90
19025;DHT22;9645;51.448;6.260;2023-07-09T17:24:23;25.90;99.90
19025;DHT22;9645;51.448;6.260;2023-07-09T17:26:51;26.10;99.90
19025;DHT22;9645;51.448;6.260;2023-07-09T17:29:19;26.20;47.40
19025;DHT22;9645;51.448;6.260;2023-07-09T17:31:48;26.40;99.90
19025;DHT22;9645;51.448;6.260;2023-07-09T17:34:17;26.40;1.00
19025;DHT22;9645;51.448;6.260;2023-07-09T17:36:44;26.50;1.00
19025;DHT22;9645;51.448;6.260;2023-07-09T17:39:19;26.50;1.00
19025;DHT22;9645;51.448;6.260;2023-07-09T17:41:47;26.50;1.00
19025;DHT22;9645;51.448;6.260;2023-07-09T17:44:15;26.50;1.00
19025;DHT22;9645;51.448;6.260;2023-07-09T17:46:43;26.60;1.00
19025;DHT22;9645;51.448;6.260;2023-07-09T17:49:16;26.40;1.00
19025;DHT22;9645;51.448;6.260;2023-07-09T17:54:16;26.50;1.00
19025;DHT22;9645;51.448;6.260;2023-07-09T17:56:44;25.70;1.00
19025;DHT22;9645;51.448;6.260;2023-07-09T17:59:14;26.40;1.00
19025;DHT22;9645;51.448;6.260;2023-07-09T18:01:43;27.00;1.00
19025;DHT22;9645;51.448;6.260;2023-07-09T18:04:19;26.50;1.00
19025;DHT22;9645;51.448;6.260;2023-07-09T18:06:47;26.30;1.00
19025;DHT22;9645;51.448;6.260;2023-07-09T18:09:16;26.20;1.00
19025;DHT22;9645;51.448;6.260;2023-07-09T18:11:44;26.10;1.00
19025;DHT22;9645;51.448;6.260;2023-07-09T18:14:23;26.10;21.10
19025;DHT22;9645;51.448;6.260;2023-07-09T18:16:51;26.00;99.90
19025;DHT22;9645;51.448;6.260;2023-07-09T18:19:23;25.90;99.90
19025;DHT22;9645;51.448;6.260;2023-07-09T18:21:51;25.70;99.90
19025;DHT22;9645;51.448;6.260;2023-07-09T18:24:19;25.80;99.90
19025;DHT22;9645;51.448;6.260;2023-07-09T18:26:47;25.60;99.90
19025;DHT22;9645;51.448;6.260;2023-07-09T18:29:25;25.50;99.90
19025;DHT22;9645;51.448;6.260;2023-07-09T18:34:21;25.10;99.90
19025;DHT22;9645;51.448;6.260;2023-07-09T18:36:48;25.00;99.90
19025;DHT22;9645;51.448;6.260;2023-07-09T18:39:15;24.90;99.90
19025;DHT22;9645;51.448;6.260;2023-07-09T18:41:43;24.90;99.90
19025;DHT22;9645;51.448;6.260;2023-07-09T18:44:21;24.80;99.90
19025;DHT22;9645;51.448;6.260;2023-07-09T18:46:50;24.80;99.90
19025;DHT22;9645;51.448;6.260;2023-07-09T18:51:45;24.70;99.90
19025;DHT22;9645;51.448;6.260;2023-07-09T18:54:15;24.50;99.90
19025;DHT22;9645;51.448;6.260;2023-07-09T18:56:43;24.50;99.90
19025;DHT22;9645;51.448;6.260;2023-07-09T18:59:12;24.20;99.90
19025;DHT22;9645;51.448;6.260;2023-07-09T19:01:41;24.20;99.90
19025;DHT22;9645;51.448;6.260;2023-07-09T19:04:13;24.20;99.90
19025;DHT22;9645;51.448;6.260;2023-07-09T19:09:16;24.10;99.90
19025;DHT22;9645;51.448;6.260;2023-07-09T19:14:10;24.60;99.90
19025;DHT22;9645;51.448;6.260;2023-07-09T19:16:37;24.10;99.90
19025;DHT22;9645;51.448;6.260;2023-07-09T19:19:05;24.60;99.90
19025;DHT22;9645;51.448;6.260;2023-07-09T19:21:38;23.80;99.90
19025;DHT22;9645;51.448;6.260;2023-07-09T19:24:25;23.80;99.90
19025;DHT22;9645;51.448;6.260;2023-07-09T19:26:53;23.70;99.90
19025;DHT22;9645;51.448;6.260;2023-07-09T19:29:21;23.70;99.90
19025;DHT22;9645;51.448;6.260;2023-07-09T19:31:50;23.70;99.90
19025;DHT22;9645;51.448;6.260;2023-07-09T19:34:20;23.40;99.90
19025;DHT22;9645;51.448;6.260;2023-07-09T19:36:48;23.50;99.90
19025;DHT22;9645;51.448;6.260;2023-07-09T19:39:26;23.50;99.90
19025;DHT22;9645;51.448;6.260;2023-07-09T19:41:58;23.40;99.90
19025;DHT22;9645;51.448;6.260;2023-07-09T19:49:20;23.20;99.90
19025;DHT22;9645;51.448;6.260;2023-07-09T19:54:16;23.30;99.90
19025;DHT22;9645;51.448;6.260;2023-07-09T19:56:46;23.20;99.90